Time;durP1;ratioP1;P1;durP2;ratioP2;P2;SDS_P1;SDS_P2;PMS_P1;PMS_P2;Temp;Humidity;BMP_temperature;BMP_pressure;BME280_temperature;BME280_humidity;BME280_pressure;Samples;Min_cycle;Max_cycle;Signal;HPM_P1;HPM_P2
2022/01/04 00:01:07;;;;;;;;;5.25;3.25;;;;;8.69;100.00;100031.16;4987901;28;10711;-70
2022/01/04 00:03:33;;;;;;;;;4.25;4.25;;;;;8.71;100.00;100025.56;4987375;28;10904;-70
2022/01/04 00:06:00;;;;;;;;;5.00;3.50;;;;;8.74;100.00;100028.69;4986238;28;10099;-71
2022/01/04 00:08:27;;;;;;;;;2.00;2.00;;;;;8.72;100.00;100016.44;4986950;28;10215;-70
2022/01/04 00:11:06;;;;;;;;;5.25;4.00;;;;;8.74;100.00;100012.50;4987183;28;9745;-70
2022/01/04 00:13:33;;;;;;;;;5.00;2.25;;;;;8.74;100.00;100009.81;4983347;28;10101;-71
2022/01/04 00:16:02;;;;;;;;;2.00;2.00;;;;;8.75;100.00;100011.47;4985920;28;9997;-71
2022/01/04 00:18:29;;;;;;;;;3.75;3.75;;;;;8.78;100.00;100002.16;4993418;28;10113;-71
2022/01/04 00:20:56;;;;;;;;;4.00;4.00;;;;;8.78;100.00;99999.44;4987208;28;9981;-70
2022/01/04 00:23:22;;;;;;;;;3.50;3.50;;;;;8.77;100.00;99987.00;4987190;28;9890;-70
2022/01/04 00:25:49;;;;;;;;;1.75;1.75;;;;;8.78;100.00;99988.66;4987226;28;10031;-70
2022/01/04 00:28:16;;;;;;;;;3.00;2.00;;;;;8.76;100.00;99978.06;4985382;28;9883;-71
2022/01/04 00:30:43;;;;;;;;;3.00;3.00;;;;;8.77;100.00;99966.22;4986981;28;10118;-70
2022/01/04 00:33:13;;;;;;;;;5.75;3.75;;;;;8.74;100.00;99968.50;4985173;28;10025;-71
2022/01/04 00:35:40;;;;;;;;;8.00;6.75;;;;;8.75;100.00;99953.97;4986720;28;10028;-70
2022/01/04 00:38:08;;;;;;;;;6.00;6.00;;;;;8.73;100.00;99950.63;4986505;28;10048;-71
2022/01/04 00:40:35;;;;;;;;;7.75;5.25;;;;;8.75;100.00;99941.31;4987522;28;10113;-71
2022/01/04 00:43:03;;;;;;;;;2.00;2.00;;;;;8.77;100.00;99946.50;4984175;28;10051;-70
2022/01/04 00:45:31;;;;;;;;;4.25;4.00;;;;;8.78;100.00;99945.47;5001855;28;9981;-70
2022/01/04 00:50:28;;;;;;;;;6.75;5.00;;;;;8.75;100.00;99933.22;4986053;28;10131;-70
2022/01/04 00:52:55;;;;;;;;;9.25;7.25;;;;;8.75;100.00;99930.53;4986996;28;10035;-70
2022/01/04 00:55:22;;;;;;;;;6.00;6.00;;;;;8.75;100.00;99935.91;4986155;28;10182;-70
2022/01/04 00:57:48;;;;;;;;;6.50;3.75;;;;;8.74;100.00;99919.94;4987368;28;10183;-70
2022/01/04 01:00:16;;;;;;;;;8.50;6.00;;;;;8.75;100.00;99922.41;4989957;28;10098;-70
2022/01/04 01:02:44;;;;;;;;;5.00;5.00;;;;;8.73;100.00;99920.97;4990034;28;10103;-70
2022/01/04 01:05:12;;;;;;;;;5.00;5.00;;;;;8.73;100.00;99919.09;4990013;28;10052;-70
2022/01/04 01:07:38;;;;;;;;;7.00;6.00;;;;;8.71;100.00;99915.75;4990422;28;10088;-70
2022/01/04 01:10:34;;;;;;;;;5.00;5.00;;;;;8.70;100.00;99910.56;4990529;28;10188;-70
2022/01/04 01:13:00;;;;;;;;;3.50;3.50;;;;;8.70;100.00;99908.69;4989648;28;10838;-70
2022/01/04 01:15:27;;;;;;;;;8.75;7.25;;;;;8.70;100.00;99910.56;4996850;28;10021;-70
2022/01/04 01:17:53;;;;;;;;;3.50;3.50;;;;;8.71;100.00;99909.53;4989275;28;10178;-70
2022/01/04 01:20:20;;;;;;;;;8.75;7.00;;;;;8.68;100.00;99908.06;4990072;28;10880;-70
2022/01/04 01:22:47;;;;;;;;;10.25;7.75;;;;;8.73;100.00;99902.06;4989066;28;10168;-70
2022/01/04 01:25:13;;;;;;;;;8.50;5.75;;;;;8.73;100.00;99899.38;4986753;28;10221;-70
2022/01/04 01:27:41;;;;;;;;;11.00;10.00;;;;;8.71;100.00;99899.56;4987856;28;10023;-70
2022/01/04 01:30:10;;;;;;;;;10.25;8.00;;;;;8.73;100.00;99891.28;4989933;28;10337;-71
2022/01/04 01:32:36;;;;;;;;;6.25;5.75;;;;;8.71;100.00;99888.78;4988033;28;10099;-71
2022/01/04 01:35:04;;;;;;;;;4.00;4.00;;;;;8.74;100.00;99888.38;4989826;28;10063;-71
2022/01/04 01:37:31;;;;;;;;;8.25;7.00;;;;;8.73;100.00;99896.66;4989334;28;10153;-71
2022/01/04 01:39:57;;;;;;;;;12.50;12.50;;;;;8.69;100.00;99887.31;4988131;28;10321;-71
2022/01/04 01:42:24;;;;;;;;;10.25;10.25;;;;;8.70;100.00;99894.38;4988823;28;10493;-71
2022/01/04 01:44:51;;;;;;;;;10.50;9.75;;;;;8.68;100.00;99877.56;4989112;28;10185;-71
2022/01/04 01:47:17;;;;;;;;;15.00;12.25;;;;;8.68;100.00;99878.38;4989435;28;10202;-71
2022/01/04 01:49:45;;;;;;;;;12.75;11.00;;;;;8.70;100.00;99875.50;4987754;28;10966;-71
2022/01/04 01:52:12;;;;;;;;;12.00;11.00;;;;;8.75;100.00;99868.44;4988369;28;10500;-71
2022/01/04 01:54:39;;;;;;;;;13.50;10.25;;;;;8.73;100.00;99862.44;4990952;28;10925;-71
2022/01/04 01:57:05;;;;;;;;;6.50;5.00;;;;;8.77;100.00;99868.25;4988140;28;10558;-71
2022/01/04 01:59:32;;;;;;;;;9.50;7.00;;;;;8.76;100.00;99853.94;4989099;28;10250;-71
2022/01/04 02:01:59;;;;;;;;;9.50;9.25;;;;;8.78;100.00;99857.25;4989689;28;10186;-71
2022/01/04 02:04:26;;;;;;;;;11.00;9.00;;;;;8.76;100.00;99848.53;4989731;28;10277;-72
2022/01/04 02:06:52;;;;;;;;;12.75;10.25;;;;;8.73;100.00;99845.41;4987558;28;10270;-71
2022/01/04 02:09:19;;;;;;;;;8.00;8.00;;;;;8.74;100.00;99847.91;4984907;28;10484;-71
2022/01/04 02:11:46;;;;;;;;;9.00;9.00;;;;;8.74;100.00;99831.72;4989068;28;10185;-71
2022/01/04 02:14:13;;;;;;;;;9.75;8.25;;;;;8.74;100.00;99829.00;4989486;28;10418;-70
2022/01/04 02:16:39;;;;;;;;;9.25;9.00;;;;;8.72;100.00;99822.97;4989268;28;10292;-70
2022/01/04 02:19:07;;;;;;;;;12.75;10.00;;;;;8.73;100.00;99821.94;4988404;28;10177;-70
2022/01/04 02:21:35;;;;;;;;;15.00;13.25;;;;;8.71;100.00;99815.91;4988802;28;10348;-70
2022/01/04 02:24:03;;;;;;;;;8.50;8.50;;;;;8.71;100.00;99826.72;4987254;28;10350;-70
2022/01/04 02:26:30;;;;;;;;;14.50;10.75;;;;;8.73;100.00;99811.16;4988433;28;10183;-71
2022/01/04 02:28:57;;;;;;;;;12.00;11.25;;;;;8.68;100.00;99808.25;5003504;28;10376;-70
2022/01/04 02:31:24;;;;;;;;;9.75;9.75;;;;;8.70;100.00;99811.56;4986767;28;10495;-71
2022/01/04 02:33:51;;;;;;;;;10.00;7.25;;;;;8.69;100.00;99803.66;4987879;28;10335;-71
2022/01/04 02:36:17;;;;;;;;;13.25;12.50;;;;;8.70;100.00;99799.94;4987978;28;10136;-70
2022/01/04 02:38:44;;;;;;;;;11.00;10.75;;;;;8.69;100.00;99791.00;4986409;28;10419;-70
2022/01/04 02:41:10;;;;;;;;;7.50;7.50;;;;;8.72;100.00;99792.47;4986991;28;11267;-71
2022/01/04 02:43:37;;;;;;;;;7.25;7.25;;;;;8.68;100.00;99793.91;4988699;28;10238;-71
2022/01/04 02:46:04;;;;;;;;;12.00;9.50;;;;;8.66;100.00;99788.69;4988444;28;10176;-71
2022/01/04 02:48:30;;;;;;;;;13.00;13.00;;;;;8.66;100.00;99785.16;4988145;28;10283;-71
2022/01/04 02:50:57;;;;;;;;;14.00;13.25;;;;;8.67;100.00;99776.88;4988414;28;10407;-71
2022/01/04 02:53:23;;;;;;;;;8.25;6.25;;;;;8.69;100.00;99765.91;4993952;28;10340;-71
2022/01/04 02:55:50;;;;;;;;;6.00;4.25;;;;;8.70;100.00;99771.09;4987145;28;11100;-70
2022/01/04 02:58:16;;;;;;;;;11.00;8.00;;;;;8.67;100.00;99770.63;4986871;28;10828;-70
2022/01/04 03:00:44;;;;;;;;;9.00;5.00;;;;;8.68;100.00;99764.22;4985751;28;9941;-71
2022/01/04 03:03:11;;;;;;;;;7.25;7.00;;;;;8.68;100.00;99756.97;4983973;28;9930;-70
2022/01/04 03:05:37;;;;;;;;;11.25;8.75;;;;;8.68;100.00;99773.16;4987398;28;10420;-71
2022/01/04 03:08:04;;;;;;;;;9.25;8.50;;;;;8.70;100.00;99765.69;4986240;28;10295;-70
2022/01/04 03:10:31;;;;;;;;;5.00;5.00;;;;;8.70;100.00;99765.69;4987559;28;10497;-71
2022/01/04 03:12:57;;;;;;;;;6.50;6.50;;;;;8.67;100.00;99751.75;5002960;28;10211;-71
2022/01/04 03:15:24;;;;;;;;;13.00;12.25;;;;;8.65;100.00;99749.25;4985906;28;10108;-70
2022/01/04 03:17:50;;;;;;;;;11.75;10.50;;;;;8.61;100.00;99743.44;4987180;28;10231;-70
2022/01/04 03:20:17;;;;;;;;;13.00;11.50;;;;;8.64;100.00;99740.34;4986048;28;10275;-70
2022/01/04 03:22:43;;;;;;;;;13.00;11.50;;;;;8.65;100.00;99727.66;4986881;28;10390;-70
2022/01/04 03:25:11;;;;;;;;;5.75;5.75;;;;;8.66;100.00;99729.34;4987034;28;10358;-70
2022/01/04 03:27:37;;;;;;;;;12.00;11.00;;;;;8.68;100.00;99723.75;4986259;28;10022;-70
2022/01/04 03:30:05;;;;;;;;;7.25;7.00;;;;;8.64;100.00;99715.22;4987680;28;10245;-70
2022/01/04 03:32:32;;;;;;;;;11.00;9.50;;;;;8.66;100.00;99706.91;4986485;28;10018;-70
2022/01/04 03:34:58;;;;;;;;;12.75;12.00;;;;;8.66;100.00;99709.63;4987455;28;10023;-71
2022/01/04 03:37:25;;;;;;;;;10.50;10.25;;;;;8.64;100.00;99702.56;4985603;28;10290;-70
2022/01/04 03:39:51;;;;;;;;;12.00;10.00;;;;;8.66;100.00;99696.13;4986893;28;10347;-70
2022/01/04 03:42:18;;;;;;;;;9.75;9.75;;;;;8.65;100.00;99679.09;4986362;28;10104;-70
2022/01/04 03:44:44;;;;;;;;;8.50;8.50;;;;;8.67;100.00;99678.91;4987399;28;10018;-70
2022/01/04 03:47:11;;;;;;;;;11.25;11.25;;;;;8.69;100.00;99682.25;4987652;28;10095;-70
2022/01/04 03:49:37;;;;;;;;;14.75;14.75;;;;;8.63;99.98;99671.22;4986492;28;11086;-70
2022/01/04 03:52:04;;;;;;;;;9.50;8.75;;;;;8.67;100.00;99679.72;5001774;28;11227;-70
2022/01/04 03:54:30;;;;;;;;;17.00;12.00;;;;;8.66;100.00;99666.44;4987102;28;10933;-69
2022/01/04 03:56:59;;;;;;;;;21.00;14.75;;;;;8.66;100.00;99669.16;4986369;28;11055;-71
2022/01/04 03:59:28;;;;;;;;;17.75;14.00;;;;;8.63;100.00;99663.13;4976569;28;10506;-70
2022/01/04 04:01:54;;;;;;;;;8.50;8.50;;;;;8.63;100.00;99656.91;4986643;28;10316;-71
2022/01/04 04:04:21;;;;;;;;;21.25;16.00;;;;;8.61;100.00;99650.88;4987233;28;10190;-70
2022/01/04 04:06:48;;;;;;;;;11.50;11.50;;;;;8.62;100.00;99634.50;5007558;22;10350;-72
2022/01/04 04:09:14;;;;;;;;;10.50;7.50;;;;;8.61;100.00;99624.72;5005296;28;11082;-73
2022/01/04 04:11:41;;;;;;;;;17.00;11.00;;;;;8.61;100.00;99637.41;5007258;28;10380;-73
2022/01/04 04:14:07;;;;;;;;;16.00;12.50;;;;;8.61;100.00;99646.31;5005784;28;10297;-72
2022/01/04 04:16:34;;;;;;;;;11.50;9.25;;;;;8.63;100.00;99640.72;5012805;28;10470;-71
2022/01/04 04:19:01;;;;;;;;;13.25;9.75;;;;;8.65;100.00;99633.25;5026598;28;10326;-73
2022/01/04 04:21:27;;;;;;;;;10.50;10.50;;;;;8.66;100.00;99634.91;5006339;28;11126;-73
2022/01/04 04:23:53;;;;;;;;;15.75;12.50;;;;;8.64;100.00;99634.28;5008194;28;10467;-72
2022/01/04 04:26:20;;;;;;;;;12.75;12.25;;;;;8.61;100.00;99637.41;5026149;28;10355;-72
2022/01/04 04:28:46;;;;;;;;;12.50;9.75;;;;;8.62;100.00;99637.19;5024206;28;10405;-71
2022/01/04 04:31:13;;;;;;;;;11.50;11.50;;;;;8.63;100.00;99627.22;5026174;28;10461;-72
2022/01/04 04:33:39;;;;;;;;;12.75;11.75;;;;;8.62;100.00;99621.00;5029061;28;10298;-72
2022/01/04 04:36:08;;;;;;;;;11.50;10.00;;;;;8.61;100.00;99611.25;5011315;28;10559;-73
2022/01/04 04:38:35;;;;;;;;;12.00;10.50;;;;;8.65;100.00;99614.34;5012191;28;10474;-72
2022/01/04 04:41:02;;;;;;;;;10.00;10.00;;;;;8.63;100.00;99603.78;5004668;28;10401;-71
2022/01/04 04:43:28;;;;;;;;;7.50;7.50;;;;;8.61;100.00;99605.84;5013287;28;10486;-73
2022/01/04 04:45:55;;;;;;;;;12.75;10.25;;;;;8.64;100.00;99607.31;5028332;28;10266;-70
2022/01/04 04:48:22;;;;;;;;;8.50;7.25;;;;;8.63;100.00;99597.56;5028551;28;10327;-72
2022/01/04 04:50:48;;;;;;;;;11.75;8.75;;;;;8.62;100.00;99593.19;5012178;28;10190;-73
2022/01/04 04:53:14;;;;;;;;;13.25;13.25;;;;;8.58;100.00;99594.66;5029552;28;10178;-70
2022/01/04 04:55:41;;;;;;;;;13.00;10.25;;;;;8.59;100.00;99591.75;5011776;28;10366;-71
2022/01/04 04:58:07;;;;;;;;;10.75;10.00;;;;;8.60;100.00;99581.78;5010789;28;11158;-72
2022/01/04 05:00:34;;;;;;;;;17.00;11.25;;;;;8.58;100.00;99578.47;5027258;28;10420;-71
2022/01/04 05:03:01;;;;;;;;;22.25;18.50;;;;;8.59;100.00;99590.91;5027378;28;10347;-72
2022/01/04 05:05:27;;;;;;;;;16.25;14.75;;;;;8.57;100.00;99593.81;5029066;28;10578;-72
2022/01/04 05:07:54;;;;;;;;;14.75;11.75;;;;;8.59;100.00;99597.13;5028571;28;10487;-72
2022/01/04 05:10:20;;;;;;;;;19.50;19.50;;;;;8.55;100.00;99585.09;5024744;28;10468;-72
2022/01/04 05:12:47;;;;;;;;;17.25;14.00;;;;;8.55;100.00;99566.22;5011205;28;10412;-72
2022/01/04 05:15:13;;;;;;;;;12.75;11.75;;;;;8.56;100.00;99564.34;5012143;28;10343;-71
2022/01/04 05:17:40;;;;;;;;;15.25;12.75;;;;;8.57;100.00;99571.41;5011696;28;10396;-72
2022/01/04 05:20:07;;;;;;;;;11.00;11.00;;;;;8.53;100.00;99565.59;5009906;28;10566;-72
2022/01/04 05:22:34;;;;;;;;;15.25;12.00;;;;;8.54;100.00;99558.34;5006372;28;10342;-71
2022/01/04 05:25:00;;;;;;;;;11.00;11.00;;;;;8.50;100.00;99552.53;5027153;28;13906;-72
2022/01/04 05:27:27;;;;;;;;;12.75;12.00;;;;;8.49;100.00;99545.47;5028266;28;10297;-72
2022/01/04 05:29:53;;;;;;;;;11.50;10.00;;;;;8.48;100.00;99556.47;5010870;28;10349;-73
2022/01/04 05:32:20;;;;;;;;;12.50;12.50;;;;;8.49;100.00;99558.13;5028840;28;10251;-72
2022/01/04 05:34:46;;;;;;;;;12.75;11.00;;;;;8.47;100.00;99552.13;5028281;28;10434;-73
2022/01/04 05:37:13;;;;;;;;;12.00;11.25;;;;;8.45;100.00;99551.50;5009699;28;10179;-72
2022/01/04 05:39:39;;;;;;;;;17.75;14.75;;;;;8.46;100.00;99556.69;5024805;28;10442;-72
2022/01/04 05:42:08;;;;;;;;;15.25;14.50;;;;;8.40;100.00;99557.50;5003969;28;10684;-72
2022/01/04 05:44:36;;;;;;;;;13.25;11.75;;;;;8.40;100.00;99551.25;5027384;28;10522;-73
2022/01/04 05:47:04;;;;;;;;;14.25;11.50;;;;;8.46;100.00;99550.47;5025146;28;10499;-72
2022/01/04 05:49:31;;;;;;;;;13.00;10.00;;;;;8.43;100.00;99548.19;5025855;28;10570;-72
2022/01/04 05:51:58;;;;;;;;;11.50;10.50;;;;;8.40;100.00;99548.56;5011400;28;10576;-72
2022/01/04 05:54:24;;;;;;;;;12.75;8.75;;;;;8.44;100.00;99537.19;5028673;28;10320;-72
2022/01/04 05:56:51;;;;;;;;;15.50;12.75;;;;;8.42;100.00;99533.84;5010394;28;10351;-72
2022/01/04 05:59:18;;;;;;;;;9.75;8.00;;;;;8.42;100.00;99536.53;5011189;28;10476;-73
2022/01/04 06:01:44;;;;;;;;;17.75;14.75;;;;;8.41;100.00;99542.97;5027799;28;10343;-73
2022/01/04 06:04:11;;;;;;;;;14.00;11.75;;;;;8.45;100.00;99530.75;4994047;28;10490;-73
2022/01/04 06:06:41;;;;;;;;;12.50;10.75;;;;;8.49;100.00;99531.16;5028129;28;10243;-73
2022/01/04 06:09:16;;;;;;;;;21.00;17.50;;;;;8.44;100.00;99530.97;5025796;28;10508;-73
2022/01/04 06:17:00;;;;;;;;;18.75;16.50;;;;;8.44;100.00;99531.78;5027069;28;10407;-72
2022/01/04 06:19:27;;;;;;;;;17.50;16.50;;;;;8.44;100.00;99531.78;5027016;28;10441;-72
2022/01/04 06:21:53;;;;;;;;;20.25;16.00;;;;;8.44;100.00;99528.25;5027888;28;10601;-73
2022/01/04 06:24:19;;;;;;;;;17.25;15.25;;;;;8.44;100.00;99521.00;5025049;28;10621;-71
2022/01/04 06:26:46;;;;;;;;;15.25;15.25;;;;;8.50;100.00;99517.47;5025363;28;11412;-73
2022/01/04 06:29:14;;;;;;;;;18.25;18.25;;;;;8.46;100.00;99520.78;5027701;28;10410;-73
2022/01/04 06:31:41;;;;;;;;;19.75;19.00;;;;;8.47;100.00;99514.38;5027444;28;10571;-73
2022/01/04 06:34:07;;;;;;;;;17.50;15.00;;;;;8.50;100.00;99524.72;5027208;28;10519;-73
2022/01/04 06:36:34;;;;;;;;;23.25;15.75;;;;;8.52;100.00;99526.19;5009767;28;10492;-72
2022/01/04 06:39:01;;;;;;;;;19.25;18.00;;;;;8.50;100.00;99513.94;5024649;28;10291;-73
2022/01/04 06:41:28;;;;;;;;;18.50;13.75;;;;;8.49;100.00;99507.72;4992786;28;10536;-73
2022/01/04 06:43:54;;;;;;;;;12.00;9.50;;;;;8.50;100.00;99509.38;5001013;28;10456;-72
2022/01/04 06:46:21;;;;;;;;;17.50;12.50;;;;;8.53;100.00;99513.53;5025012;28;10345;-72
2022/01/04 06:48:47;;;;;;;;;16.25;14.00;;;;;8.51;100.00;99508.34;5009524;28;11004;-72
2022/01/04 06:51:14;;;;;;;;;17.75;16.75;;;;;8.52;100.00;99496.50;5009450;28;10381;-73
2022/01/04 06:53:40;;;;;;;;;14.75;13.50;;;;;8.54;100.00;99493.59;5027385;28;10511;-73
2022/01/04 06:56:07;;;;;;;;;12.75;11.00;;;;;8.57;100.00;99488.63;5026233;28;11194;-73
2022/01/04 06:58:34;;;;;;;;;13.00;10.50;;;;;8.54;100.00;99490.91;5008888;28;10216;-72
2022/01/04 07:01:00;;;;;;;;;14.25;12.75;;;;;8.53;100.00;99481.16;5027728;28;10266;-71
2022/01/04 07:03:29;;;;;;;;;16.00;15.00;;;;;8.52;100.00;99483.03;5006912;28;10468;-72
2022/01/04 07:05:56;;;;;;;;;22.25;14.00;;;;;8.55;100.00;99487.16;5025669;28;11421;-72
2022/01/04 07:08:22;;;;;;;;;13.00;8.50;;;;;8.54;100.00;99480.94;5008303;28;10287;-71
2022/01/04 07:10:49;;;;;;;;;17.50;15.00;;;;;8.52;100.00;99480.31;5007253;28;10372;-70
2022/01/04 07:13:15;;;;;;;;;13.25;11.25;;;;;8.55;100.00;99484.47;5006028;28;10529;-71
2022/01/04 07:15:42;;;;;;;;;10.50;9.50;;;;;8.54;100.00;99472.03;4990700;28;10435;-71
2022/01/04 07:18:09;;;;;;;;;11.50;11.00;;;;;8.54;100.00;99477.41;5007965;28;10365;-72
2022/01/04 07:20:35;;;;;;;;;12.25;10.25;;;;;8.52;100.00;99463.31;5024928;28;10369;-70
2022/01/04 07:23:03;;;;;;;;;15.50;14.00;;;;;8.52;100.00;99456.06;5023796;28;10172;-69
2022/01/04 07:25:30;;;;;;;;;21.00;20.25;;;;;8.48;100.00;99454.00;5024636;28;10477;-72
2022/01/04 07:27:56;;;;;;;;;15.50;15.25;;;;;8.52;100.00;99457.91;5025579;28;10509;-73
2022/01/04 07:30:23;;;;;;;;;19.00;18.50;;;;;8.49;100.00;99459.16;5026178;28;10414;-73
2022/01/04 07:32:49;;;;;;;;;17.00;14.00;;;;;8.45;100.00;99466.03;5009181;28;10498;-69
2022/01/04 07:35:16;;;;;;;;;18.75;15.25;;;;;8.68;100.00;99470.97;5025193;28;10544;-72
2022/01/04 07:37:42;;;;;;;;;18.75;16.00;;;;;8.52;100.00;99460.63;5007007;28;10355;-72
2022/01/04 07:40:09;;;;;;;;;19.25;17.25;;;;;8.48;100.00;99460.22;4996267;28;10544;-72
2022/01/04 07:42:36;;;;;;;;;15.25;14.00;;;;;8.47;100.00;99455.84;5023497;28;10627;-70
2022/01/04 07:45:03;;;;;;;;;21.25;16.50;;;;;8.47;100.00;99461.25;5025858;28;10323;-72
2022/01/04 07:47:30;;;;;;;;;12.50;11.75;;;;;8.45;100.00;99457.09;5023363;28;10433;-71
2022/01/04 07:49:56;;;;;;;;;13.00;11.00;;;;;8.48;100.00;99454.00;5006842;28;10906;-69
2022/01/04 07:52:23;;;;;;;;;16.50;11.00;;;;;8.48;100.00;99467.47;5004775;28;10427;-72
2022/01/04 07:54:50;;;;;;;;;13.25;11.00;;;;;8.48;100.00;99471.00;5006524;28;10264;-71
2022/01/04 07:57:16;;;;;;;;;11.00;11.00;;;;;8.50;100.00;99465.41;5025572;28;10254;-70
2022/01/04 07:59:42;;;;;;;;;16.00;12.25;;;;;8.42;100.00;99463.72;5007860;28;10253;-72
2022/01/04 08:02:09;;;;;;;;;20.00;16.00;;;;;8.46;100.00;99475.78;5022868;28;10523;-72
2022/01/04 08:04:36;;;;;;;;;20.50;15.25;;;;;8.48;100.00;99476.38;5006518;28;10441;-73
2022/01/04 08:07:02;;;;;;;;;17.00;14.50;;;;;8.41;100.00;99477.41;5026243;28;10469;-72
2022/01/04 08:09:31;;;;;;;;;15.75;11.25;;;;;8.35;100.00;99476.38;5030468;28;10354;-73
2022/01/04 08:11:58;;;;;;;;;11.00;9.25;;;;;8.36;100.00;99478.03;5011002;28;10603;-74
2022/01/04 08:14:25;;;;;;;;;10.00;10.00;;;;;8.34;100.00;99469.34;5028252;28;10386;-72
2022/01/04 08:16:53;;;;;;;;;7.25;7.25;;;;;8.44;100.00;99477.03;5031439;28;10347;-72
2022/01/04 08:19:19;;;;;;;;;8.00;7.00;;;;;8.39;100.00;99469.53;5006378;28;10512;-72
2022/01/04 08:21:46;;;;;;;;;1.75;1.75;;;;;8.40;99.42;99478.44;5026122;28;10263;-67
2022/01/04 08:24:13;;;;;;;;;8.50;2.00;;;;;8.46;99.03;99467.69;5016267;28;10127;-72
2022/01/04 08:26:40;;;;;;;;;3.00;3.00;;;;;8.46;98.27;99480.34;5020483;28;10052;-72
2022/01/04 08:29:06;;;;;;;;;1.75;1.75;;;;;8.41;97.79;99491.72;5005082;28;10113;-73
2022/01/04 08:31:33;;;;;;;;;7.00;4.00;;;;;8.39;97.70;99492.97;5003101;28;10044;-73
2022/01/04 08:33:59;;;;;;;;;1.25;1.25;;;;;8.34;97.45;99493.59;5004877;28;10149;-71
2022/01/04 08:36:28;;;;;;;;;2.50;2.50;;;;;8.37;97.24;99503.97;5021210;28;10034;-69
2022/01/04 08:38:56;;;;;;;;;6.25;4.00;;;;;8.41;97.39;99499.81;5008649;28;9942;-72
2022/01/04 08:41:22;;;;;;;;;0.50;0.50;;;;;8.36;97.37;99494.22;5000892;28;10121;-72
2022/01/04 08:43:49;;;;;;;;;1.50;1.50;;;;;8.38;97.10;99502.94;5022314;28;9946;-72
2022/01/04 08:46:15;;;;;;;;;2.00;1.50;;;;;8.40;97.04;99498.16;5007415;28;9915;-72
2022/01/04 08:48:42;;;;;;;;;2.00;2.00;;;;;8.41;97.04;99501.69;5023232;28;10879;-72
2022/01/04 08:51:09;;;;;;;;;0.50;0.50;;;;;8.42;97.09;99512.25;5021377;28;9941;-73
2022/01/04 08:53:35;;;;;;;;;2.00;1.00;;;;;8.34;97.13;99509.78;5006634;28;9833;-73
2022/01/04 08:56:04;;;;;;;;;1.00;1.00;;;;;8.43;97.07;99513.13;4991780;28;9775;-73
2022/01/04 08:58:30;;;;;;;;;2.00;2.00;;;;;8.45;97.03;99511.03;5006874;28;10729;-73
2022/01/04 09:00:57;;;;;;;;;0.00;0.00;;;;;8.48;97.04;99507.94;5006502;28;10012;-73
2022/01/04 09:03:26;;;;;;;;;1.25;1.25;;;;;8.47;96.73;99507.09;5023397;28;9941;-71
2022/01/04 09:05:53;;;;;;;;;0.00;0.00;;;;;8.48;96.82;99495.28;5006219;28;9951;-72
2022/01/04 09:08:19;;;;;;;;;1.00;1.00;;;;;8.50;97.05;99509.38;5024597;28;9853;-72
2022/01/04 09:10:46;;;;;;;;;0.25;0.25;;;;;8.52;97.51;99499.22;5023793;28;9865;-72
2022/01/04 09:13:17;;;;;;;;;1.00;1.00;;;;;8.48;97.02;99502.53;5025182;28;10047;-72
2022/01/04 09:18:46;;;;;;;;;0.75;0.75;;;;;8.44;97.16;99498.59;4987139;28;10687;-73
2022/01/04 09:21:27;;;;;;;;;0.00;0.00;;;;;8.44;97.22;99517.47;5021879;28;9851;-73
2022/01/04 09:23:56;;;;;;;;;1.00;0.25;;;;;8.43;97.26;99516.66;5020151;28;10143;-72
2022/01/04 09:26:25;;;;;;;;;3.75;1.50;;;;;8.43;96.97;99511.25;5005329;28;9766;-72
2022/01/04 09:28:52;;;;;;;;;1.00;1.00;;;;;8.41;96.70;99518.69;5021972;28;9940;-72
2022/01/04 09:31:24;;;;;;;;;1.25;1.25;;;;;8.43;97.05;99516.66;5021744;28;9967;-73
2022/01/04 09:33:55;;;;;;;;;0.00;0.00;;;;;8.46;96.93;99526.19;5019634;28;10029;-73
2022/01/04 09:36:34;;;;;;;;;1.00;1.00;;;;;8.48;96.50;99524.09;5021805;28;10009;-73
2022/01/04 09:39:02;;;;;;;;;1.75;1.75;;;;;8.53;96.35;99516.22;5008632;28;10171;-73
2022/01/04 09:41:29;;;;;;;;;1.75;1.00;;;;;8.52;95.86;99518.09;5007163;28;9923;-69
2022/01/04 09:43:56;;;;;;;;;3.75;2.75;;;;;8.46;95.15;99516.22;5020732;28;9921;-73
2022/01/04 09:46:22;;;;;;;;;5.25;3.00;;;;;8.51;95.58;99513.72;5003899;28;10085;-73
2022/01/04 09:48:49;;;;;;;;;1.25;1.25;;;;;8.53;95.29;99511.66;5007559;28;10034;-72
2022/01/04 09:51:17;;;;;;;;;2.50;2.50;;;;;8.59;95.02;99520.78;5001771;28;10371;-73
2022/01/04 09:53:44;;;;;;;;;2.00;1.50;;;;;8.69;95.33;99521.19;5021339;28;10218;-73
2022/01/04 09:56:13;;;;;;;;;3.75;3.75;;;;;8.64;94.43;99523.66;5020280;28;9943;-71
2022/01/04 09:58:39;;;;;;;;;4.00;2.00;;;;;8.59;94.23;99527.00;4990436;28;10780;-68
2022/01/04 10:01:06;;;;;;;;;2.00;2.00;;;;;8.43;93.92;99524.75;4988474;28;10165;-75
2022/01/04 10:03:35;;;;;;;;;4.50;4.50;;;;;8.38;94.27;99527.19;5022293;28;9940;-72
2022/01/04 10:06:14;;;;;;;;;2.00;2.00;;;;;8.42;94.00;99533.00;5002284;28;11083;-72
2022/01/04 10:08:56;;;;;;;;;1.50;1.50;;;;;8.29;91.62;99536.50;5007025;28;10964;-73
2022/01/04 10:11:31;;;;;;;;;0.00;0.00;;;;;8.22;90.83;99531.13;5021484;28;9913;-73
2022/01/04 10:14:26;;;;;;;;;0.50;0.00;;;;;8.31;91.39;99537.13;5021911;28;9903;-73
2022/01/04 10:16:57;;;;;;;;;1.00;1.00;;;;;8.25;90.33;99538.78;5022642;28;9935;-72
2022/01/04 10:19:28;;;;;;;;;0.00;0.00;;;;;8.30;90.69;99533.59;5003978;28;10089;-72
2022/01/04 10:22:30;;;;;;;;;1.00;1.00;;;;;8.19;90.08;99541.50;5020426;28;9866;-72
2022/01/04 10:25:00;;;;;;;;;2.50;0.00;;;;;8.23;90.70;99534.66;4992703;28;9933;-71
2022/01/04 10:27:28;;;;;;;;;0.00;0.00;;;;;8.26;90.43;99534.22;4987493;28;9870;-72
2022/01/04 10:30:27;;;;;;;;;1.00;0.25;;;;;8.14;90.09;99533.16;5021091;28;10085;-72
2022/01/04 10:33:14;;;;;;;;;0.00;0.00;;;;;8.18;90.83;99529.00;5018995;28;10039;-70
2022/01/04 10:35:41;;;;;;;;;0.00;0.00;;;;;8.15;90.31;99530.25;5001251;28;10746;-69
2022/01/04 10:38:28;;;;;;;;;0.50;0.50;;;;;8.03;89.57;99532.75;5019974;28;9870;-70
2022/01/04 10:40:57;;;;;;;;;1.00;0.00;;;;;7.86;89.70;99526.06;5020242;28;10180;-71
2022/01/04 10:43:28;;;;;;;;;0.00;0.00;;;;;7.93;90.12;99531.47;5019750;28;9947;-71
2022/01/04 10:45:56;;;;;;;;;0.00;0.00;;;;;7.80;90.26;99534.16;5016496;28;9917;-73
2022/01/04 10:48:26;;;;;;;;;0.00;0.00;;;;;7.88;91.28;99531.25;5004731;28;9869;-71
2022/01/04 10:50:55;;;;;;;;;0.50;0.50;;;;;7.84;91.08;99533.53;5018242;28;9863;-71
2022/01/04 10:53:31;;;;;;;;;0.00;0.00;;;;;7.86;91.50;99538.72;5002788;28;9928;-71
2022/01/04 10:56:03;;;;;;;;;0.00;0.00;;;;;7.75;91.07;99547.41;5020799;28;9969;-71
2022/01/04 10:58:33;;;;;;;;;0.00;0.00;;;;;7.70;90.90;99550.72;5021897;28;10088;-73
2022/01/04 11:01:03;;;;;;;;;1.00;1.00;;;;;7.66;90.42;99552.94;5002331;28;10078;-71
2022/01/04 11:03:33;;;;;;;;;0.00;0.00;;;;;7.51;90.30;99552.28;5019335;28;10112;-72
2022/01/04 11:06:06;;;;;;;;;0.00;0.00;;;;;7.52;90.95;99551.25;5018628;28;10158;-72
2022/01/04 11:08:34;;;;;;;;;0.75;0.00;;;;;7.53;91.41;99555.59;5018915;28;10014;-70
2022/01/04 11:11:00;;;;;;;;;0.50;0.50;;;;;7.63;90.65;99571.38;5022104;28;10146;-70
2022/01/04 11:13:27;;;;;;;;;0.00;0.00;;;;;7.72;90.31;99572.88;5003420;28;10081;-72
2022/01/04 11:15:54;;;;;;;;;0.00;0.00;;;;;7.67;90.24;99580.72;5018354;28;10232;-72
2022/01/04 11:18:21;;;;;;;;;0.25;0.25;;;;;7.75;89.95;99591.34;4998657;28;10203;-72
2022/01/04 11:20:49;;;;;;;;;2.00;0.00;;;;;7.70;89.51;99591.94;4992812;28;10748;-70
2022/01/04 11:23:16;;;;;;;;;0.00;0.00;;;;;7.63;89.22;99592.94;5002216;28;10061;-71
2022/01/04 11:25:45;;;;;;;;;0.75;0.50;;;;;7.51;89.21;99592.69;5003231;28;10761;-73
2022/01/04 11:28:14;;;;;;;;;0.00;0.00;;;;;7.59;89.33;99597.06;5020011;28;10100;-73
2022/01/04 11:30:58;;;;;;;;;0.00;0.00;;;;;7.54;89.10;99610.28;5004335;28;10009;-70
2022/01/04 11:33:29;;;;;;;;;0.00;0.00;;;;;7.45;89.94;99604.25;5001444;28;10349;-72
2022/01/04 11:35:56;;;;;;;;;1.00;1.00;;;;;7.52;89.47;99618.56;5002275;28;10182;-71
2022/01/04 11:38:30;;;;;;;;;0.00;0.00;;;;;7.45;88.73;99627.66;5019458;28;10683;-69
2022/01/04 11:40:57;;;;;;;;;0.00;0.00;;;;;7.27;87.86;99620.91;5019802;28;10947;-72
2022/01/04 11:43:42;;;;;;;;;0.00;0.00;;;;;7.43;88.59;99624.31;5019990;28;10123;-70